Time;durP1;ratioP1;P1;durP2;ratioP2;P2;SDS_P1;SDS_P2;PMS_P1;PMS_P2;Temp;Humidity;BMP_temperature;BMP_pressure;BME280_temperature;BME280_humidity;BME280_pressure;Samples;Min_cycle;Max_cycle;Signal;HPM_P1;HPM_P2
2023/10/16 00:02:22;;;;;;;13.40;2.95;;;;;;;-144.73;100.00;54621.16;4952105;28;20023;-77
2023/10/16 00:04:48;;;;;;;14.68;2.75;;;;;;;-144.73;100.00;54604.75;4933110;28;20038;-77
2023/10/16 00:07:22;;;;;;;12.23;2.13;;;;;;;-144.73;100.00;54633.47;4934087;29;20034;-77
2023/10/16 00:09:49;;;;;;;22.95;2.42;;;;;;;-144.73;100.00;54678.63;4952618;28;20115;-77
2023/10/16 00:12:19;;;;;;;18.73;3.35;;;;;;;-144.73;100.00;54645.78;4934081;28;20054;-76
2023/10/16 00:14:46;;;;;;;18.50;2.90;;;;;;;-144.73;100.00;54621.16;4927409;28;20044;-76
2023/10/16 00:17:13;;;;;;;12.57;2.20;;;;;;;-144.73;100.00;54633.47;4936718;28;20062;-76
2023/10/16 00:19:39;;;;;;;20.98;2.75;;;;;;;-144.73;100.00;54645.78;4927530;28;20042;-76
2023/10/16 00:22:15;;;;;;;17.92;2.72;;;;;;;-144.73;100.00;54617.06;5031135;28;20031;-76
2023/10/16 00:24:47;;;;;;;11.70;2.78;;;;;;;-144.73;100.00;54629.38;4946952;28;20097;-76
2023/10/16 00:27:14;;;;;;;20.67;3.65;;;;;;;-144.73;100.00;54649.91;4936062;28;20038;-76
2023/10/16 00:29:44;;;;;;;16.13;2.28;;;;;;;-144.73;100.00;54658.13;4952869;28;20028;-76
2023/10/16 00:32:11;;;;;;;12.98;2.28;;;;;;;-144.73;100.00;54645.78;4923471;28;20111;-76
2023/10/16 00:34:37;;;;;;;14.50;2.47;;;;;;;-144.73;100.00;54633.47;4950403;28;20039;-76
2023/10/16 00:37:04;;;;;;;17.63;2.63;;;;;;;-144.73;100.00;54606.78;4928650;29;20024;-77
2023/10/16 00:39:35;;;;;;;21.17;3.50;;;;;;;-144.73;100.00;54625.28;4924559;28;20539;-77
2023/10/16 00:42:01;;;;;;;16.30;2.40;;;;;;;-144.73;100.00;54592.44;4983335;28;20032;-77
2023/10/16 00:44:35;;;;;;;19.75;2.80;;;;;;;-144.73;100.00;54690.97;4948497;28;20031;-76
2023/10/16 00:47:04;;;;;;;22.30;2.35;;;;;;;-144.73;100.00;54596.53;4932505;28;20161;-76
2023/10/16 00:49:38;;;;;;;20.63;2.67;;;;;;;-144.73;100.00;54637.59;4953170;28;20035;-78
2023/10/16 00:52:05;;;;;;;10.70;2.65;;;;;;;-144.73;100.00;54612.97;4929719;28;20030;-76
2023/10/16 00:54:39;;;;;;;13.38;1.90;;;;;;;-144.73;100.00;54608.84;4926831;29;20071;-76
2023/10/16 00:57:07;;;;;;;19.30;2.88;;;;;;;-144.73;100.00;54635.53;4948835;28;20023;-76
2023/10/16 00:59:35;;;;;;;16.02;2.45;;;;;;;-144.73;100.00;54625.28;4948669;28;20031;-77
2023/10/16 01:02:17;;;;;;;9.77;2.05;;;;;;;-144.73;100.00;54670.44;4969960;28;20035;-76
2023/10/16 01:04:44;;;;;;;11.52;2.30;;;;;;;-144.73;100.00;54629.38;4946722;28;20043;-77
2023/10/16 01:07:14;;;;;;;17.67;2.67;;;;;;;-144.73;100.00;54662.22;4952259;28;20046;-77
2023/10/16 01:09:40;;;;;;;8.98;2.58;;;;;;;-144.73;100.00;54629.38;4947661;28;20031;-76
2023/10/16 01:12:06;;;;;;;16.20;2.28;;;;;;;-144.73;100.00;54662.22;4935107;28;20468;-77
2023/10/16 01:14:36;;;;;;;26.23;2.75;;;;;;;-144.73;100.00;54656.06;4943546;28;20115;-77
2023/10/16 01:17:03;;;;;;;18.40;1.70;;;;;;;-144.73;100.00;54654.00;4928460;28;20055;-77
2023/10/16 01:19:29;;;;;;;10.05;1.98;;;;;;;-144.73;100.00;54625.28;4933886;29;20032;-77
2023/10/16 01:21:54;;;;;;;17.98;3.13;;;;;;;-144.73;100.00;54629.38;4932751;28;20020;-77
2023/10/16 01:24:21;;;;;;;12.45;2.45;;;;;;;-144.73;100.00;54604.75;4932378;28;20074;-77
2023/10/16 01:26:48;;;;;;;9.68;2.30;;;;;;;-144.73;100.00;54654.00;4930216;28;20066;-77
2023/10/16 01:29:15;;;;;;;18.75;2.40;;;;;;;-144.73;100.00;54629.38;4961578;28;20027;-76
2023/10/16 01:31:44;;;;;;;15.48;2.83;;;;;;;-144.73;100.00;54656.06;4928161;28;20027;-77
2023/10/16 01:34:12;;;;;;;9.63;2.03;;;;;;;-144.73;100.00;54576.00;4925934;28;20035;-76
2023/10/16 01:36:47;;;;;;;15.25;2.42;;;;;;;-144.73;100.00;54643.75;4936177;28;20161;-77
2023/10/16 01:42:01;;;;;;;18.73;2.35;;;;;;;-144.73;100.00;54629.38;4952766;28;20020;-76
2023/10/16 01:44:26;;;;;;;11.50;1.80;;;;;;;-144.73;100.00;54651.97;4950191;28;20088;-77
2023/10/16 01:46:54;;;;;;;19.73;2.28;;;;;;;-144.73;100.00;54670.44;4929841;28;20038;-77
2023/10/16 01:49:19;;;;;;;18.73;4.43;;;;;;;-144.73;100.00;54647.84;4932013;28;20031;-77
2023/10/16 01:51:45;;;;;;;13.45;2.33;;;;;;;-144.73;100.00;54670.44;4950341;28;20023;-76
2023/10/16 01:54:14;;;;;;;15.40;2.08;;;;;;;-144.73;100.00;54633.47;4950870;28;20023;-77
2023/10/16 01:56:41;;;;;;;14.02;2.03;;;;;;;-144.73;100.00;54637.59;4952566;29;20030;-78
2023/10/16 01:59:07;;;;;;;10.82;2.75;;;;;;;-144.73;100.00;54633.47;4928016;28;20034;-77
2023/10/16 02:01:32;;;;;;;17.45;2.58;;;;;;;-144.73;100.00;54637.59;4936211;28;20055;-77
2023/10/16 02:03:57;;;;;;;11.27;2.05;;;;;;;-144.73;100.00;54658.13;4967803;28;20043;-78
2023/10/16 02:06:25;;;;;;;12.35;2.05;;;;;;;-144.73;100.00;54637.59;4930185;29;20032;-77
2023/10/16 02:08:51;;;;;;;11.38;2.78;;;;;;;-144.73;100.00;54637.59;4934023;28;20024;-77
2023/10/16 02:11:16;;;;;;;9.77;2.42;;;;;;;-144.73;100.00;54637.59;4954925;28;20073;-77
2023/10/16 02:13:43;;;;;;;18.48;2.83;;;;;;;-144.73;100.00;54686.84;4942765;29;20026;-77
2023/10/16 02:16:12;;;;;;;15.43;3.50;;;;;;;-144.73;100.00;54654.00;4925905;29;20032;-77
2023/10/16 02:18:40;;;;;;;11.93;2.60;;;;;;;-144.73;100.00;54633.47;4941504;29;20027;-77
2023/10/16 02:21:06;;;;;;;8.85;3.08;;;;;;;-144.73;100.00;54621.16;4954896;28;20057;-77
2023/10/16 02:23:32;;;;;;;13.30;3.03;;;;;;;-144.73;100.00;54662.22;4955093;28;20043;-78
2023/10/16 02:26:01;;;;;;;22.88;2.72;;;;;;;-144.73;100.00;54633.47;4952207;28;20050;-78
2023/10/16 02:28:31;;;;;;;19.77;3.90;;;;;;;-144.73;100.00;54617.06;4948687;28;20030;-77
2023/10/16 02:31:13;;;;;;;20.83;2.97;;;;;;;-144.73;100.00;54625.28;4959838;28;20040;-78
2023/10/16 02:33:44;;;;;;;22.15;3.65;;;;;;;-144.73;100.00;54658.13;4955464;28;20129;-78
2023/10/16 02:36:10;;;;;;;13.23;3.00;;;;;;;-144.73;100.00;54617.06;4932647;28;20034;-78
2023/10/16 02:38:35;;;;;;;14.82;3.13;;;;;;;-144.73;100.00;54641.69;4931528;28;20019;-78
2023/10/16 02:41:03;;;;;;;21.27;3.15;;;;;;;-144.73;100.00;54629.38;4964096;28;20039;-78
2023/10/16 02:43:29;;;;;;;14.65;3.10;;;;;;;-144.73;100.00;54625.28;4954748;28;20030;-78
2023/10/16 02:45:57;;;;;;;21.70;3.63;;;;;;;-144.73;100.00;54612.97;4935498;28;20045;-78
2023/10/16 02:48:23;;;;;;;16.98;3.45;;;;;;;-144.73;100.00;54627.31;4954689;28;20107;-78
2023/10/16 02:50:50;;;;;;;17.73;3.67;;;;;;;-144.73;100.00;54643.75;4936664;28;20059;-78
2023/10/16 02:53:23;;;;;;;17.23;3.60;;;;;;;-144.73;100.00;54608.84;4954097;28;20031;-78
2023/10/16 02:55:57;;;;;;;17.73;3.22;;;;;;;-144.73;100.00;54612.97;4926585;28;20066;-78
2023/10/16 02:58:23;;;;;;;17.08;3.08;;;;;;;-144.73;100.00;54625.28;4933351;28;20035;-78
2023/10/16 03:00:53;;;;;;;13.50;3.20;;;;;;;-144.73;100.00;54645.78;4962526;28;20039;-78
2023/10/16 03:03:19;;;;;;;22.42;5.15;;;;;;;-144.73;100.00;54621.16;4946028;28;20027;-78
2023/10/16 03:05:44;;;;;;;11.25;2.97;;;;;;;-144.73;100.00;54656.06;4934252;29;20098;-78
2023/10/16 03:08:12;;;;;;;13.38;2.95;;;;;;;-144.73;100.00;54651.97;4954114;28;20023;-78
2023/10/16 03:10:40;;;;;;;10.35;3.30;;;;;;;-144.73;100.00;54596.53;4965944;28;20042;-78
2023/10/16 03:13:06;;;;;;;23.67;3.50;;;;;;;-144.73;100.00;54641.69;4964201;28;20055;-79
2023/10/16 03:15:47;;;;;;;9.68;2.55;;;;;;;-144.73;100.00;54637.59;4937757;28;20038;-77
2023/10/16 03:18:17;;;;;;;15.98;3.42;;;;;;;-144.73;100.00;54672.47;4942434;28;20072;-77
2023/10/16 03:20:47;;;;;;;13.68;2.80;;;;;;;-144.73;100.00;54617.06;4962857;28;20050;-78
2023/10/16 03:23:13;;;;;;;24.17;3.58;;;;;;;-144.73;100.00;54633.47;4958689;28;20024;-78
2023/10/16 03:28:08;;;;;;;16.52;3.70;;;;;;;-144.73;100.00;54621.16;4944989;28;20028;-78
2023/10/16 03:30:34;;;;;;;22.55;3.15;;;;;;;-144.73;100.00;54625.28;4964170;28;20035;-78
2023/10/16 03:33:00;;;;;;;12.70;3.25;;;;;;;-144.73;100.00;54660.16;4939123;28;20112;-78
2023/10/16 03:35:29;;;;;;;15.77;3.30;;;;;;;-144.73;100.00;54676.59;4939210;28;20085;-79
2023/10/16 03:37:56;;;;;;;20.67;3.72;;;;;;;-144.73;100.00;54641.69;4926923;29;20118;-78
2023/10/16 03:40:24;;;;;;;21.08;4.40;;;;;;;-144.73;100.00;54654.00;4939131;28;20097;-78
2023/10/16 03:42:51;;;;;;;15.23;3.85;;;;;;;-144.73;100.00;54651.97;4950371;28;20027;-78
2023/10/16 03:45:23;;;;;;;12.57;3.90;;;;;;;-144.73;100.00;54637.59;4976908;28;20089;-78
2023/10/16 03:47:58;;;;;;;13.48;4.10;;;;;;;-144.73;100.00;54656.06;5000393;28;20034;-79
2023/10/16 03:50:34;;;;;;;14.73;3.55;;;;;;;-144.73;100.00;54608.84;4962802;28;20071;-78
2023/10/16 03:53:03;;;;;;;27.90;5.07;;;;;;;-144.73;100.00;54637.59;4954224;29;20081;-79
2023/10/16 03:55:31;;;;;;;26.90;6.22;;;;;;;-144.73;100.00;54662.22;4959721;28;20062;-79
2023/10/16 03:57:57;;;;;;;21.50;4.70;;;;;;;-144.73;100.00;54670.44;4949849;29;20055;-79
2023/10/16 04:00:41;;;;;;;18.00;4.50;;;;;;;-144.73;100.00;54633.47;4955184;28;20242;-78
2023/10/16 04:03:08;;;;;;;21.67;4.85;;;;;;;-144.73;100.00;54654.00;4934627;28;20031;-78
2023/10/16 04:05:45;;;;;;;19.15;4.30;;;;;;;-144.73;100.00;54631.44;4954805;28;20040;-79
2023/10/16 04:08:14;;;;;;;16.33;4.80;;;;;;;-144.73;100.00;54637.59;4931853;29;20024;-79
2023/10/16 04:10:46;;;;;;;23.13;5.47;;;;;;;-144.73;100.00;54608.84;4934933;28;20036;-78
2023/10/16 04:13:14;;;;;;;19.60;4.45;;;;;;;-144.73;100.00;54670.44;4982510;28;20058;-78
2023/10/16 04:23:52;;;;;;;22.67;4.93;;;;;;;-144.73;100.00;54670.44;4966099;28;20027;-78
2023/10/16 04:36:54;;;;;;;19.58;5.88;;;;;;;-144.73;100.00;54678.63;4984275;28;20023;-78
2023/10/16 04:44:49;;;;;;;23.70;6.28;;;;;;;-144.73;100.00;54629.38;4964910;28;20068;-78
2023/10/16 04:47:17;;;;;;;25.08;5.47;;;;;;;-144.73;100.00;54678.63;4931747;28;20036;-78
2023/10/16 04:49:59;;;;;;;19.67;5.53;;;;;;;-144.73;100.00;54658.13;4949129;28;20035;-78
2023/10/16 04:53:06;;;;;;;16.35;5.85;;;;;;;-144.73;100.00;54656.06;4944511;28;20035;-78
2023/10/16 04:55:22;;;;;;;20.77;5.53;;;;;;;-144.73;100.00;54637.59;4965407;28;20055;-79
2023/10/16 04:57:47;;;;;;;32.25;6.57;;;;;;;-144.73;100.00;54633.47;4960620;28;20941;-80
2023/10/16 05:00:54;;;;;;;23.58;7.28;;;;;;;-144.73;100.00;54625.28;4957116;28;20102;-77
2023/10/16 05:03:23;;;;;;;16.80;6.25;;;;;;;-144.73;100.00;54629.38;4950130;28;20058;-77
2023/10/16 05:05:56;;;;;;;19.95;6.32;;;;;;;-144.73;100.00;54674.53;4951834;28;20027;-78
2023/10/16 05:08:35;;;;;;;21.58;6.72;;;;;;;-144.73;100.00;54637.59;4935816;28;20539;-79
2023/10/16 05:16:35;;;;;;;28.13;7.50;;;;;;;-144.73;100.00;54621.16;4953629;28;20039;-78
2023/10/16 05:19:03;;;;;;;24.10;7.13;;;;;;;-144.73;100.00;54625.28;4953265;28;20100;-79
2023/10/16 06:16:17;;;;;;;29.02;12.07;;;;;;;-144.73;100.00;54678.63;4950306;28;20031;-78
2023/10/16 06:18:47;;;;;;;24.55;10.57;;;;;;;-144.73;100.00;54678.63;4929056;29;20019;-78
2023/10/16 06:21:16;;;;;;;24.15;11.98;;;;;;;-144.73;100.00;54641.69;4953115;28;20045;-78
2023/10/16 06:23:47;;;;;;;28.50;10.85;;;;;;;-144.73;100.00;54621.16;4936243;29;20027;-77
2023/10/16 06:26:14;;;;;;;28.13;12.43;;;;;;;-144.73;100.00;54629.38;4934834;28;20055;-77
2023/10/16 06:28:47;;;;;;;34.58;12.30;;;;;;;-144.73;100.00;54670.44;4924316;29;20114;-76
2023/10/16 06:31:25;;;;;;;33.13;12.90;;;;;;;-144.73;100.00;54629.38;4949875;28;20118;-76
2023/10/16 06:33:57;;;;;;;28.55;13.85;;;;;;;-144.73;100.00;54658.13;4934443;28;20027;-76
2023/10/16 06:36:24;;;;;;;22.70;13.00;;;;;;;-144.73;100.00;54629.38;4949266;28;20039;-76
2023/10/16 06:38:52;;;;;;;37.40;14.65;;;;;;;-144.73;100.00;54670.44;4950101;28;20066;-76
2023/10/16 06:41:21;;;;;;;36.78;15.00;;;;;;;-144.73;100.00;54627.31;4925835;29;20070;-77
2023/10/16 06:43:48;;;;;;;34.80;16.33;;;;;;;-144.73;100.00;54641.69;4957573;28;20361;-77
2023/10/16 06:46:25;;;;;;;31.63;15.82;;;;;;;-144.73;100.00;54649.91;4933283;28;20044;-74
2023/10/16 06:48:51;;;;;;;39.88;15.57;;;;;;;-144.73;100.00;54660.16;4950331;28;20025;-77
2023/10/16 06:51:17;;;;;;;28.02;14.18;;;;;;;-144.73;100.00;54635.53;4938476;28;20040;-76
2023/10/16 06:53:45;;;;;;;31.25;14.85;;;;;;;-144.73;100.00;54680.69;4953837;28;20547;-76
2023/10/16 06:56:27;;;;;;;29.60;14.10;;;;;;;-144.73;100.00;54662.22;4935890;28;20039;-76
2023/10/16 06:58:54;;;;;;;27.45;15.82;;;;;;;-144.73;100.00;54670.44;4951001;28;20027;-77
2023/10/16 07:01:20;;;;;;;21.98;13.20;;;;;;;-144.73;100.00;54695.06;4928392;29;20063;-77
2023/10/16 07:03:47;;;;;;;26.58;13.57;;;;;;;-144.73;100.00;54678.63;4928850;28;20032;-76
2023/10/16 07:06:14;;;;;;;29.17;14.50;;;;;;;-144.73;100.00;54645.78;4953346;28;20039;-76
2023/10/16 07:08:41;;;;;;;33.97;14.73;;;;;;;-144.73;100.00;54625.28;4937134;28;20110;-76
2023/10/16 07:11:11;;;;;;;31.65;13.88;;;;;;;-144.73;100.00;54654.00;4936658;28;20062;-76
2023/10/16 07:13:38;;;;;;;30.35;14.60;;;;;;;-144.73;100.00;54670.44;4938522;28;20030;-76
2023/10/16 07:16:05;;;;;;;25.58;13.07;;;;;;;-144.73;100.00;54658.13;4920372;28;20513;-73
2023/10/16 07:18:33;;;;;;;19.85;12.00;;;;;;;-144.73;100.00;54662.22;4943441;28;20027;-74
2023/10/16 07:21:00;;;;;;;29.38;12.05;;;;;;;-144.73;100.00;54670.44;4929854;28;20118;-75
2023/10/16 07:23:29;;;;;;;25.23;13.40;;;;;;;-144.73;100.00;54645.78;4943952;28;20031;-74
2023/10/16 07:25:58;;;;;;;20.35;12.02;;;;;;;-144.73;100.00;54651.97;4934576;28;20043;-74
2023/10/16 07:28:29;;;;;;;23.52;13.15;;;;;;;-144.73;100.00;54674.53;4945236;28;20031;-74
2023/10/16 07:31:05;;;;;;;25.50;11.75;;;;;;;-144.73;100.00;54645.78;4926483;28;20035;-74
2023/10/16 07:33:32;;;;;;;21.92;9.15;;;;;;;-144.73;100.00;54647.84;4970753;28;20031;-74
2023/10/16 07:36:01;;;;;;;22.83;10.98;;;;;;;-144.73;100.00;54629.38;4946594;28;20064;-74
2023/10/16 07:38:28;;;;;;;26.90;11.55;;;;;;;-144.73;100.00;54682.75;4961590;28;20134;-73
2023/10/16 07:40:55;;;;;;;20.08;10.43;;;;;;;-144.73;100.00;54645.78;4955381;28;20035;-74
2023/10/16 07:43:26;;;;;;;21.83;12.27;;;;;;;-144.73;100.00;54645.78;4959593;28;20023;-74
2023/10/16 07:46:16;;;;;;;22.80;11.47;;;;;;;-144.73;100.00;54707.38;4929039;28;20035;-73
2023/10/16 07:48:44;;;;;;;25.90;11.57;;;;;;;-144.73;100.00;54654.00;4954525;28;20278;-74
2023/10/16 07:51:10;;;;;;;26.92;11.18;;;;;;;-144.73;100.00;54633.47;4951440;28;20042;-74
2023/10/16 07:53:52;;;;;;;20.27;10.02;;;;;;;-144.73;100.00;54649.91;4949950;28;20718;-74
2023/10/16 07:56:19;;;;;;;18.33;9.93;;;;;;;-144.73;100.00;54670.44;4919943;28;20027;-74
2023/10/16 07:58:56;;;;;;;19.40;10.57;;;;;;;-144.73;100.00;54678.63;4925940;28;20433;-74
2023/10/16 08:01:48;;;;;;;27.60;11.50;;;;;;;-144.73;100.00;54705.31;4949826;28;20041;-74
2023/10/16 08:06:55;;;;;;;24.02;9.73;;;;;;;-144.73;100.00;54645.78;4950292;28;20019;-74
2023/10/16 08:11:58;;;;;;;20.35;7.55;;;;;;;-144.73;100.00;54690.97;4951961;28;20557;-74
2023/10/16 08:14:28;;;;;;;17.52;8.80;;;;;;;-144.73;100.00;54654.00;4950082;28;20055;-73
2023/10/16 08:17:14;;;;;;;17.08;8.20;;;;;;;-144.73;100.00;54670.44;4925274;28;20074;-74
2023/10/16 08:19:40;;;;;;;15.15;7.50;;;;;;;-144.73;100.00;54629.38;4951378;28;20031;-74
2023/10/16 08:22:07;;;;;;;12.32;6.75;;;;;;;-144.73;100.00;54629.38;4932477;28;20035;-74
2023/10/16 08:24:34;;;;;;;16.75;7.38;;;;;;;-144.73;100.00;54633.47;4945959;28;20035;-74
2023/10/16 08:29:59;;;;;;;13.27;7.03;;;;;;;-144.73;100.00;54617.06;4948589;28;20043;-73
2023/10/16 08:32:48;;;;;;;20.90;7.47;;;;;;;-144.73;100.00;54637.59;4948067;28;20550;-73
2023/10/16 08:35:17;;;;;;;20.75;7.25;;;;;;;-144.73;100.00;54649.91;4946786;28;20075;-74
2023/10/16 08:37:58;;;;;;;17.52;6.78;;;;;;;-144.73;100.00;54670.44;4927917;28;20052;-73
2023/10/16 08:40:35;;;;;;;27.57;6.97;;;;;;;-144.73;100.00;54643.75;4931437;28;20085;-74
2023/10/16 08:43:03;;;;;;;9.85;6.15;;;;;;;-144.73;100.00;54654.00;4949203;28;20264;-73
2023/10/16 08:45:32;;;;;;;14.20;6.18;;;;;;;-144.73;100.00;54629.38;4922795;28;20052;-73
2023/10/16 08:47:58;;;;;;;12.93;6.97;;;;;;;-144.73;100.00;54629.38;4958495;28;20078;-75
2023/10/16 08:50:42;;;;;;;19.95;6.45;;;;;;;-144.73;100.00;54647.84;4934751;28;20046;-74
2023/10/16 08:53:30;;;;;;;17.77;5.72;;;;;;;-144.73;100.00;54654.00;4945914;28;20085;-73
2023/10/16 08:55:56;;;;;;;19.65;5.60;;;;;;;-144.73;100.00;54641.69;4958701;28;20053;-75
2023/10/16 08:58:22;;;;;;;11.02;4.93;;;;;;;-144.73;100.00;54621.16;4994603;28;20036;-71
2023/10/16 09:00:50;;;;;;;12.07;5.20;;;;;;;-144.73;100.00;54637.59;4950715;28;20568;-73
2023/10/16 09:03:19;;;;;;;10.07;4.40;;;;;;;-144.73;100.00;54633.47;4947889;28;20435;-73
2023/10/16 09:05:45;;;;;;;13.18;4.18;;;;;;;-144.73;100.00;54633.47;4930350;28;20106;-73
2023/10/16 09:08:14;;;;;;;16.92;4.60;;;;;;;-144.73;100.00;54649.91;4929880;28;20063;-74
2023/10/16 09:10:41;;;;;;;9.00;3.70;;;;;;;-144.73;100.00;54660.16;4928795;28;20063;-74
2023/10/16 09:13:16;;;;;;;8.02;3.10;;;;;;;-144.73;100.00;54621.16;4928695;28;20035;-74
2023/10/16 09:15:45;;;;;;;12.30;3.63;;;;;;;-144.73;100.00;54641.69;4944936;28;20081;-74
2023/10/16 09:18:14;;;;;;;11.20;3.40;;;;;;;-144.73;100.00;54633.47;4945893;28;20031;-74
2023/10/16 09:20:43;;;;;;;14.57;3.88;;;;;;;-144.73;100.00;54592.44;4937373;28;20078;-74
2023/10/16 09:23:14;;;;;;;11.57;3.35;;;;;;;-144.73;100.00;54670.44;4937406;28;20035;-74
2023/10/16 09:25:45;;;;;;;7.47;3.15;;;;;;;-144.73;100.00;54635.53;4924355;28;20031;-74
2023/10/16 09:28:16;;;;;;;11.15;3.20;;;;;;;-144.73;100.00;54654.00;4954637;28;20023;-74
2023/10/16 09:30:44;;;;;;;;;;;;;;;-144.73;100.00;54654.00;4971662;28;20036;-74
2023/10/16 09:33:10;;;;;;;13.95;2.83;;;;;;;-144.73;100.00;54612.97;4952284;28;19918;-74
2023/10/16 09:35:43;;;;;;;11.05;2.95;;;;;;;-144.73;100.00;54678.63;4936063;28;20050;-74
2023/10/16 09:38:19;;;;;;;14.57;2.70;;;;;;;-144.73;100.00;54621.16;4969261;28;20105;-74
2023/10/16 09:43:46;;;;;;;12.70;2.70;;;;;;;-144.73;100.00;54612.97;4946209;28;20034;-74
2023/10/16 09:46:33;;;;;;;13.90;2.70;;;;;;;-144.73;100.00;54641.69;4946251;28;20039;-74
2023/10/16 09:49:05;;;;;;;10.90;2.17;;;;;;;-144.73;100.00;54649.91;4969066;28;20024;-74
2023/10/16 09:51:35;;;;;;;14.82;2.15;;;;;;;-144.73;100.00;54684.78;4933177;28;20445;-74
2023/10/16 09:54:02;;;;;;;4.60;1.67;;;;;;;-144.73;100.00;54674.53;4913762;28;20570;-74
2023/10/16 09:56:35;;;;;;;17.75;1.92;;;;;;;-144.73;100.00;54670.44;4912683;29;20132;-74
2023/10/16 09:59:04;;;;;;;10.23;2.00;;;;;;;-144.73;100.00;54621.16;4922587;29;20028;-74
2023/10/16 10:01:31;;;;;;;12.65;1.73;;;;;;;-144.73;100.00;54617.06;4923995;28;20122;-74
2023/10/16 10:03:58;;;;;;;11.52;2.53;;;;;;;-144.73;100.00;54649.91;4908755;28;20016;-74
2023/10/16 10:06:32;;;;;;;5.47;1.35;;;;;;;-144.73;100.00;54645.78;4924781;29;20040;-74
2023/10/16 10:11:38;;;;;;;5.80;1.20;;;;;;;-144.73;100.00;54649.91;4926322;28;20131;-74
2023/10/16 10:14:29;;;;;;;7.15;1.20;;;;;;;-144.73;100.00;54658.13;4930927;29;20020;-75
2023/10/16 10:16:58;;;;;;;21.33;2.60;;;;;;;-144.73;100.00;54617.06;4925190;29;20039;-74
2023/10/16 10:19:39;;;;;;;11.15;2.05;;;;;;;-144.73;100.00;54629.38;4912569;28;20050;-74
2023/10/16 10:22:17;;;;;;;13.03;1.93;;;;;;;-144.73;100.00;54625.28;4910037;29;20024;-74
2023/10/16 10:24:50;;;;;;;14.30;2.00;;;;;;;-144.73;100.00;54629.38;4923228;28;20272;-74
2023/10/16 10:27:19;;;;;;;14.15;2.47;;;;;;;-144.73;100.00;54637.59;4915724;28;20035;-74
2023/10/16 10:29:48;;;;;;;12.32;2.10;;;;;;;-144.73;100.00;54621.16;4915805;28;20090;-74
2023/10/16 10:32:14;;;;;;;11.30;1.60;;;;;;;-144.73;100.00;54596.53;4932865;28;20069;-75
2023/10/16 10:34:42;;;;;;;11.90;1.95;;;;;;;-144.73;100.00;54654.00;4931884;28;20046;-75
2023/10/16 10:37:45;;;;;;;8.10;1.52;;;;;;;-144.73;100.00;54639.63;4916987;28;20028;-75
2023/10/16 10:40:24;;;;;;;11.32;2.13;;;;;;;-144.73;100.00;54645.78;4930668;28;20390;-74
2023/10/16 10:42:55;;;;;;;11.48;1.63;;;;;;;-144.73;100.00;54625.28;4916840;28;20024;-74
2023/10/16 10:45:35;;;;;;;12.07;1.92;;;;;;;-144.73;100.00;54647.84;4916506;28;20036;-74
2023/10/16 10:48:09;;;;;;;7.57;1.70;;;;;;;-144.73;100.00;54584.22;4933892;29;20038;-75
2023/10/16 10:50:40;;;;;;;17.48;3.92;;;;;;;-144.73;100.00;54674.53;4931903;29;20036;-75
2023/10/16 10:53:13;;;;;;;8.53;1.83;;;;;;;-144.73;100.00;54645.78;4925203;29;20043;-74
2023/10/16 10:55:56;;;;;;;14.05;2.03;;;;;;;-144.73;100.00;54645.78;4941475;28;20043;-75
2023/10/16 10:58:24;;;;;;;10.70;2.55;;;;;;;-144.73;100.00;54637.59;4934840;28;20027;-74
2023/10/16 11:00:50;;;;;;;16.20;2.42;;;;;;;-144.73;100.00;54576.00;4982148;28;20103;-74
2023/10/16 11:03:22;;;;;;;4.72;1.55;;;;;;;-144.73;100.00;54629.38;4959215;28;20050;-74
2023/10/16 11:05:49;;;;;;;6.38;1.30;;;;;;;-144.73;100.00;54588.31;4930899;28;20050;-74
2023/10/16 11:10:44;;;;;;;7.07;1.52;;;;;;;-144.73;100.00;54645.78;4949910;28;20028;-75
2023/10/16 11:13:11;;;;;;;12.95;2.13;;;;;;;-144.73;100.00;54608.84;4934882;28;20043;-75
2023/10/16 11:15:44;;;;;;;7.60;1.30;;;;;;;-144.73;100.00;54596.53;4949184;28;20063;-75
2023/10/16 11:18:11;;;;;;;9.43;1.73;;;;;;;-144.73;100.00;54604.75;4975268;28;20038;-75
2023/10/16 11:20:38;;;;;;;11.13;1.75;;;;;;;-144.73;100.00;54621.16;4944681;28;20123;-75
2023/10/16 11:23:13;;;;;;;7.25;1.45;;;;;;;-144.73;100.00;54584.22;4953775;28;20104;-74
2023/10/16 11:25:50;;;;;;;8.95;1.48;;;;;;;-144.73;100.00;54590.38;4959197;28;20043;-75
2023/10/16 11:28:20;;;;;;;17.38;2.13;;;;;;;-144.73;100.00;54612.97;4964758;28;20040;-75
2023/10/16 11:30:53;;;;;;;18.33;2.65;;;;;;;-144.73;100.00;54608.84;4952822;28;20043;-75
2023/10/16 11:33:34;;;;;;;7.72;2.20;;;;;;;-144.73;98.10;54612.97;4952168;28;20115;-75
2023/10/16 11:36:06;;;;;;;11.80;1.63;;;;;;;-144.73;93.93;54612.97;4943761;28;20501;-75
2023/10/16 11:38:34;;;;;;;9.52;1.45;;;;;;;-144.73;96.12;54596.53;4932463;29;20041;-75
2023/10/16 11:41:16;;;;;;;13.27;1.70;;;;;;;-144.73;97.69;54604.75;4935020;28;20042;-75
2023/10/16 11:43:51;;;;;;;8.13;1.40;;;;;;;-144.73;95.65;54580.13;4959014;28;20019;-75
2023/10/16 11:46:34;;;;;;;5.25;1.10;;;;;;;-144.73;93.99;54608.84;4967354;28;20043;-75
2023/10/16 11:51:58;;;;;;;10.70;2.10;;;;;;;-144.73;92.78;54563.69;4960615;28;20031;-75
2023/10/16 11:54:24;;;;;;;10.02;1.35;;;;;;;-144.73;92.85;54621.16;4947486;28;20027;-74
2023/10/16 11:56:54;;;;;;;6.50;1.30;;;;;;;-144.73;92.65;54612.97;4932996;28;20141;-74
2023/10/16 11:59:21;;;;;;;13.00;2.08;;;;;;;-144.73;92.74;54621.16;4930226;28;20051;-74
2023/10/16 12:01:53;;;;;;;8.10;1.30;;;;;;;-144.73;88.11;54643.75;4932373;28;20093;-74
2023/10/16 12:04:19;;;;;;;4.40;1.13;;;;;;;-144.73;86.76;54625.28;4925251;28;20023;-74
2023/10/16 12:06:49;;;;;;;5.60;1.27;;;;;;;-144.73;87.75;54608.84;5024641;28;20053;-74
2023/10/16 12:09:21;;;;;;;13.68;1.52;;;;;;;-144.73;86.06;54617.06;4949147;28;20486;-74
2023/10/16 12:11:49;;;;;;;8.50;1.50;;;;;;;-144.73;83.61;54608.84;4931561;28;20450;-74
2023/10/16 12:14:18;;;;;;;12.10;3.55;;;;;;;-144.73;86.02;54588.31;4930034;28;20028;-74
2023/10/16 12:16:45;;;;;;;16.48;1.90;;;;;;;-144.73;86.65;54619.13;4949219;28;20035;-74
2023/10/16 12:19:15;;;;;;;8.40;1.20;;;;;;;-144.73;88.86;54590.38;4946052;28;20065;-73
2023/10/16 12:21:43;;;;;;;10.52;1.67;;;;;;;-144.73;84.36;54563.69;4946171;28;20015;-74
2023/10/16 12:24:12;;;;;;;5.88;1.65;;;;;;;-144.73;83.19;54567.81;4931800;28;20035;-74
2023/10/16 12:26:41;;;;;;;11.32;2.55;;;;;;;-144.73;84.53;54588.31;4930451;29;20044;-74
2023/10/16 12:29:09;;;;;;;10.57;1.40;;;;;;;-144.73;83.76;54596.53;4945888;28;20054;-74
2023/10/16 12:31:40;;;;;;;11.52;1.23;;;;;;;-144.73;79.28;54596.53;4960815;28;20402;-74
2023/10/16 12:34:11;;;;;;;11.23;1.88;;;;;;;-144.73;83.64;54645.78;4973970;28;20019;-74
2023/10/16 12:36:42;;;;;;;6.18;1.50;;;;;;;-144.73;83.61;54623.22;4964428;28;20059;-74
2023/10/16 12:39:16;;;;;;;7.07;1.38;;;;;;;-144.73;84.33;54602.69;4935857;28;20023;-74
2023/10/16 12:41:44;;;;;;;9.73;1.52;;;;;;;-144.73;83.77;54600.63;4929998;28;20023;-73
2023/10/16 12:44:10;;;;;;;12.70;1.45;;;;;;;-144.73;87.30;54592.44;4976961;28;20072;-74
2023/10/16 12:46:43;;;;;;;7.15;1.35;;;;;;;-144.73;80.66;54637.59;4944818;28;20039;-74
2023/10/16 12:49:08;;;;;;;10.20;1.25;;;;;;;-144.73;79.50;54580.13;4930409;28;20054;-75
2023/10/16 12:51:34;;;;;;;13.40;1.70;;;;;;;-144.73;83.31;54645.78;4947592;28;20030;-74
2023/10/16 12:54:03;;;;;;;8.27;1.73;;;;;;;-144.73;82.39;54645.78;4947924;28;20030;-75
2023/10/16 12:56:35;;;;;;;7.32;1.30;;;;;;;-144.73;83.43;54584.22;4950503;28;20039;-74
2023/10/16 12:59:01;;;;;;;5.78;1.42;;;;;;;-144.73;83.58;54617.06;4925722;28;20033;-74
2023/10/16 13:01:27;;;;;;;11.10;2.28;;;;;;;-144.73;86.14;54592.44;4930868;28;20032;-74
2023/10/16 13:04:03;;;;;;;10.43;2.85;;;;;;;-144.73;84.56;54580.13;4961881;28;20397;-75
2023/10/16 13:06:30;;;;;;;7.63;1.25;;;;;;;-144.73;83.49;54571.91;4932420;28;20539;-73